createdAt,value
2023-12-30T00:01:30.438Z,97488.91
2023-12-30T00:03:57.930Z,97504.09
2023-12-30T00:06:25.366Z,97476.81
2023-12-30T00:08:54.043Z,97484.38
2023-12-30T00:11:21.544Z,97487.69
2023-12-30T00:13:49.076Z,97482.00
2023-12-30T00:16:16.424Z,97475.38
2023-12-30T00:18:43.752Z,97480.56
2023-12-30T00:21:11.535Z,97465.75
2023-12-30T00:23:45.529Z,97463.34
2023-12-30T00:26:21.827Z,97465.09
2023-12-30T00:29:01.022Z,97457.03
2023-12-30T00:31:29.543Z,97443.06
2023-12-30T00:33:58.235Z,97456.91
2023-12-30T00:36:26.258Z,97462.78
2023-12-30T00:38:56.521Z,97454.41
2023-12-30T00:41:27.884Z,97453.28
2023-12-30T00:43:55.308Z,97453.66
2023-12-30T00:46:23.364Z,97445.38
2023-12-30T00:48:57.064Z,97445.44
2023-12-30T00:51:26.830Z,97441.31
2023-12-30T00:53:54.083Z,97434.06
2023-12-30T00:56:21.512Z,97434.78
2023-12-30T00:58:50.414Z,97429.09
2023-12-30T01:01:17.872Z,97425.59
2023-12-30T01:03:45.365Z,97417.38
2023-12-30T01:06:12.922Z,97433.22
2023-12-30T01:08:40.187Z,97417.16
2023-12-30T01:11:07.471Z,97409.09
2023-12-30T01:13:34.783Z,97414.94
2023-12-30T01:16:07.178Z,97420.47
2023-12-30T01:18:34.601Z,97425.28
2023-12-30T01:21:02.267Z,97418.16
2023-12-30T01:23:29.570Z,97408.09
2023-12-30T01:25:56.926Z,97408.22
2023-12-30T01:28:24.441Z,97411.19
2023-12-30T01:30:52.673Z,97412.78
2023-12-30T01:33:21.949Z,97408.22
2023-12-30T01:35:49.247Z,97400.19
2023-12-30T01:38:16.705Z,97400.44
2023-12-30T01:40:44.242Z,97408.00
2023-12-30T01:43:24.662Z,97388.66
2023-12-30T01:45:53.466Z,97388.88
2023-12-30T01:48:23.734Z,97377.53
2023-12-30T01:50:53.073Z,97368.66
2023-12-30T01:53:21.090Z,97388.47
2023-12-30T01:55:51.750Z,97385.94
2023-12-30T01:58:19.860Z,97389.44
2023-12-30T02:00:49.863Z,97368.50
2023-12-30T02:03:18.920Z,97367.88
2023-12-30T02:05:48.834Z,97373.78
2023-12-30T02:08:16.557Z,97366.50
2023-12-30T02:10:44.106Z,97377.28
2023-12-30T02:13:11.795Z,97365.03
2023-12-30T02:15:39.978Z,97365.69
2023-12-30T02:18:07.626Z,97371.34
2023-12-30T02:20:35.598Z,97356.59
2023-12-30T02:23:06.767Z,97369.72
2023-12-30T02:25:34.321Z,97363.88
2023-12-30T02:28:01.710Z,97369.41
2023-12-30T02:30:29.338Z,97364.56
2023-12-30T02:32:58.418Z,97354.66
2023-12-30T02:35:26.133Z,97356.25
2023-12-30T02:37:53.352Z,97355.94
2023-12-30T02:40:22.099Z,97352.00
2023-12-30T02:42:49.550Z,97362.56
2023-12-30T02:45:17.168Z,97345.41
2023-12-30T02:47:44.486Z,97355.84
2023-12-30T02:50:12.021Z,97351.31
2023-12-30T02:52:39.683Z,97350.81
2023-12-30T02:55:07.949Z,97362.53
2023-12-30T02:57:48.301Z,97351.81
2023-12-30T03:00:18.442Z,97359.22
2023-12-30T03:02:46.067Z,97362.53
2023-12-30T03:05:13.608Z,97364.44
2023-12-30T03:07:41.257Z,97362.22
2023-12-30T03:10:09.931Z,97352.59
2023-12-30T03:12:38.672Z,97360.81
2023-12-30T03:15:06.781Z,97357.84
2023-12-30T03:17:34.100Z,97371.38
2023-12-30T03:20:01.515Z,97359.84
2023-12-30T03:22:33.952Z,97360.16
2023-12-30T03:25:01.461Z,97354.19
2023-12-30T03:27:30.795Z,97365.06
2023-12-30T03:30:00.210Z,97365.06
2023-12-30T03:32:29.122Z,97359.22
2023-12-30T03:34:56.519Z,97356.38
2023-12-30T03:37:24.542Z,97360.47
2023-12-30T03:39:53.520Z,97367.13
2023-12-30T03:42:21.118Z,97366.16
2023-12-30T03:44:48.380Z,97343.19
2023-12-30T03:47:17.247Z,97360.38
2023-12-30T03:49:44.716Z,97364.19
2023-12-30T03:52:12.323Z,97361.66
2023-12-30T03:54:39.682Z,97369.09
2023-12-30T03:57:07.005Z,97350.31
2023-12-30T03:59:34.329Z,97371.47
2023-12-30T04:02:01.983Z,97371.00
2023-12-30T04:04:31.411Z,97370.84
2023-12-30T04:06:59.005Z,97363.59
2023-12-30T04:09:26.734Z,97366.47
2023-12-30T04:11:54.298Z,97382.06
2023-12-30T04:14:21.798Z,97371.97
2023-12-30T04:17:08.351Z,97379.06
2023-12-30T04:19:36.930Z,97368.38
2023-12-30T04:22:04.524Z,97361.72
2023-12-30T04:24:32.199Z,97382.59
2023-12-30T04:26:59.778Z,97382.06
2023-12-30T04:29:30.093Z,97377.81
2023-12-30T04:31:57.756Z,97394.06
2023-12-30T04:34:25.436Z,97387.78
2023-12-30T04:36:54.553Z,97384.94
2023-12-30T04:39:23.091Z,97383.19
2023-12-30T04:41:50.461Z,97384.47
2023-12-30T04:44:17.983Z,97395.69
2023-12-30T04:46:46.134Z,97410.34
2023-12-30T04:49:14.918Z,97407.22
2023-12-30T04:51:42.815Z,97390.31
2023-12-30T04:54:11.548Z,97412.25
2023-12-30T04:56:39.288Z,97419.84
2023-12-30T04:59:06.762Z,97414.94
2023-12-30T05:01:34.189Z,97421.56
2023-12-30T05:04:02.723Z,97422.16
2023-12-30T05:06:30.871Z,97413.66
2023-12-30T05:09:00.714Z,97427.69
2023-12-30T05:11:29.448Z,97432.75
2023-12-30T05:13:57.439Z,97426.63
2023-12-30T05:16:24.857Z,97443.63
2023-12-30T05:18:52.346Z,97435.25
2023-12-30T05:21:20.126Z,97444.91
2023-12-30T05:23:47.564Z,97434.81
2023-12-30T05:26:15.148Z,97462.06
2023-12-30T05:28:44.018Z,97457.69
2023-12-30T05:31:11.576Z,97453.56
2023-12-30T05:33:39.310Z,97466.19
2023-12-30T05:36:07.919Z,97474.91
2023-12-30T05:38:35.247Z,97475.97
2023-12-30T05:41:02.674Z,97474.09
2023-12-30T05:43:30.124Z,97472.19
2023-12-30T05:45:58.871Z,97494.13
2023-12-30T05:48:26.356Z,97475.38
2023-12-30T05:50:53.539Z,97479.63
2023-12-30T05:53:20.782Z,97497.59
2023-12-30T05:55:48.389Z,97502.00
2023-12-30T05:58:15.792Z,97505.00
2023-12-30T06:00:43.019Z,97512.88
2023-12-30T06:03:11.765Z,97512.44
2023-12-30T06:05:39.154Z,97522.53
2023-12-30T06:08:07.027Z,97523.63
2023-12-30T06:10:34.755Z,97528.69
2023-12-30T06:13:02.527Z,97517.16
2023-12-30T06:15:29.988Z,97539.53
2023-12-30T06:17:57.381Z,97551.41
2023-12-30T06:20:26.267Z,97556.59
2023-12-30T06:22:53.543Z,97566.22
2023-12-30T06:25:20.897Z,97570.19
2023-12-30T06:27:48.191Z,97581.06
2023-12-30T06:30:15.918Z,97576.34
2023-12-30T06:32:43.657Z,97578.72
2023-12-30T06:35:11.291Z,97575.69
2023-12-30T06:37:39.973Z,97597.09
2023-12-30T06:40:08.957Z,97606.72
2023-12-30T06:42:36.857Z,97576.56
2023-12-30T06:45:04.699Z,97607.78
2023-12-30T06:47:32.735Z,97607.28
2023-12-30T06:50:00.188Z,97616.88
2023-12-30T06:52:27.735Z,97622.22
2023-12-30T06:55:06.673Z,97626.50
2023-12-30T06:57:42.786Z,97623.31
2023-12-30T07:00:10.412Z,97630.75
2023-12-30T07:02:37.640Z,97641.75
2023-12-30T07:05:05.753Z,97647.16
2023-12-30T07:07:33.185Z,97658.31
2023-12-30T07:10:02.097Z,97654.66
2023-12-30T07:12:31.324Z,97673.75
2023-12-30T07:14:58.963Z,97674.25
2023-12-30T07:17:26.992Z,97683.28
2023-12-30T07:19:54.494Z,97697.50
2023-12-30T07:22:21.865Z,97702.94
2023-12-30T07:24:49.454Z,97699.66
2023-12-30T07:27:18.433Z,97710.81
2023-12-30T07:29:45.938Z,97717.44
2023-12-30T07:32:13.322Z,97721.25
2023-12-30T07:34:41.258Z,97732.94
2023-12-30T07:37:08.570Z,97736.47
2023-12-30T07:39:36.053Z,97734.25
2023-12-30T07:42:04.436Z,97742.13
2023-12-30T07:44:38.752Z,97737.19
2023-12-30T07:47:09.276Z,97765.75
2023-12-30T07:49:37.390Z,97760.41
2023-12-30T07:52:05.701Z,97761.50
2023-12-30T07:54:32.918Z,97767.84
2023-12-30T07:57:00.298Z,97765.69
2023-12-30T07:59:27.696Z,97752.19
2023-12-30T08:01:57.780Z,97776.47
2023-12-30T08:04:26.006Z,97780.31
2023-12-30T08:06:54.437Z,97784.16
2023-12-30T08:09:24.132Z,97780.97
2023-12-30T08:11:59.319Z,97779.38
2023-12-30T08:14:30.458Z,97798.00
2023-12-30T08:17:02.704Z,97802.75
2023-12-30T08:19:30.004Z,97808.97
2023-12-30T08:21:57.425Z,97820.34
2023-12-30T08:24:24.855Z,97830.31
2023-12-30T08:26:52.150Z,97826.19
2023-12-30T08:29:19.431Z,97820.22
2023-12-30T08:31:47.643Z,97835.91
2023-12-30T08:34:17.265Z,97846.44
2023-12-30T08:36:45.511Z,97840.72
2023-12-30T08:39:13.504Z,97836.53
2023-12-30T08:41:41.937Z,97856.44
2023-12-30T08:44:09.578Z,97856.44
2023-12-30T08:46:37.490Z,97858.00
2023-12-30T08:49:07.396Z,97856.78
2023-12-30T08:51:37.977Z,97859.31
2023-12-30T08:54:05.597Z,97847.66
2023-12-30T08:56:34.813Z,97865.16
2023-12-30T08:59:03.126Z,97864.25
2023-12-30T09:01:30.821Z,97866.63
2023-12-30T09:03:58.293Z,97866.50
2023-12-30T09:06:25.738Z,97893.69
2023-12-30T09:08:54.373Z,97895.56
2023-12-30T09:11:22.603Z,97897.41
2023-12-30T09:13:53.282Z,97909.09
2023-12-30T09:16:20.750Z,97915.38
2023-12-30T09:18:48.364Z,97913.78
2023-12-30T09:21:15.693Z,97918.81
2023-12-30T09:23:43.049Z,97927.19
2023-12-30T09:26:14.095Z,97929.31
2023-12-30T09:28:41.810Z,97928.88
2023-12-30T09:31:09.728Z,97928.09
2023-12-30T09:33:37.277Z,97935.94
2023-12-30T09:36:06.100Z,97929.97
2023-12-30T09:38:33.931Z,97924.91
2023-12-30T09:41:04.539Z,97930.34
2023-12-30T09:43:34.861Z,97922.81
2023-12-30T09:46:05.867Z,97939.25
2023-12-30T09:48:36.223Z,97941.00
2023-12-30T09:51:03.844Z,97942.03
2023-12-30T09:53:31.744Z,97947.75
2023-12-30T09:55:59.673Z,97939.91
2023-12-30T09:58:27.131Z,97943.22
2023-12-30T10:00:55.939Z,97935.66
2023-12-30T10:03:25.103Z,97948.78
2023-12-30T10:05:56.039Z,97948.78
2023-12-30T10:08:24.531Z,97946.78
2023-12-30T10:10:52.566Z,97945.56
2023-12-30T10:13:23.440Z,97946.22
2023-12-30T10:15:51.436Z,97945.16
2023-12-30T10:18:20.679Z,97948.75
2023-12-30T10:20:48.756Z,97946.09
2023-12-30T10:23:16.194Z,97944.50
2023-12-30T10:25:43.773Z,97956.97
2023-12-30T10:28:11.297Z,97950.88
2023-12-30T10:30:38.617Z,97960.31
2023-12-30T10:33:11.202Z,97944.28
2023-12-30T10:35:41.876Z,97956.97
2023-12-30T10:38:10.849Z,97957.28
2023-12-30T10:40:39.643Z,97961.47
2023-12-30T10:43:08.385Z,97943.66
2023-12-30T10:45:36.627Z,97935.69
2023-12-30T10:48:07.648Z,97943.38
2023-12-30T10:50:39.217Z,97944.97
2023-12-30T10:53:12.955Z,97953.72
2023-12-30T10:55:49.835Z,97956.63
2023-12-30T10:58:22.031Z,97956.31
2023-12-30T11:00:54.095Z,97952.22
2023-12-30T11:03:22.753Z,97946.59
2023-12-30T11:06:01.799Z,97959.72
2023-12-30T11:08:30.846Z,97959.84
2023-12-30T11:10:59.548Z,97950.72
2023-12-30T11:13:26.895Z,97949.25
2023-12-30T11:15:56.074Z,97951.78
2023-12-30T11:18:49.365Z,97950.19
2023-12-30T11:21:37.535Z,97960.16
2023-12-30T11:24:08.600Z,97954.31
2023-12-30T11:26:39.230Z,97962.69
2023-12-30T11:29:11.135Z,97957.94
2023-12-30T11:31:41.717Z,97953.38
2023-12-30T11:34:11.042Z,97960.53
2023-12-30T11:36:39.161Z,97956.13
2023-12-30T11:39:08.825Z,97954.91
2023-12-30T11:41:36.769Z,97950.38
2023-12-30T11:44:07.184Z,97948.75
2023-12-30T11:46:35.126Z,97953.56
2023-12-30T11:49:02.721Z,97958.75
2023-12-30T11:51:31.714Z,97968.84
2023-12-30T11:54:04.169Z,97964.09
2023-12-30T11:56:34.106Z,97963.94
2023-12-30T11:59:02.190Z,97966.63
2023-12-30T12:01:30.106Z,97969.13
2023-12-30T12:03:57.996Z,97966.88
2023-12-30T12:06:25.686Z,97972.72
2023-12-30T12:08:53.020Z,97965.94
2023-12-30T12:11:20.427Z,97986.16
2023-12-30T12:13:49.476Z,97978.88
2023-12-30T12:16:16.939Z,97982.03
2023-12-30T12:18:44.571Z,97983.63
2023-12-30T12:21:15.465Z,97982.84
2023-12-30T12:23:43.765Z,97985.22
2023-12-30T12:26:11.206Z,97980.97
2023-12-30T12:28:40.412Z,97985.22
2023-12-30T12:31:09.665Z,97981.78
2023-12-30T12:33:37.246Z,97982.56
2023-12-30T12:36:06.253Z,97978.28
2023-12-30T12:38:33.948Z,97962.50
2023-12-30T12:41:01.338Z,97969.78
2023-12-30T12:43:31.340Z,97969.63
2023-12-30T12:45:58.805Z,97984.66
2023-12-30T12:48:27.661Z,97984.66
2023-12-30T12:50:56.887Z,97984.66
2023-12-30T12:53:24.860Z,97979.88
2023-12-30T12:55:52.294Z,97979.31
2023-12-30T12:58:19.634Z,97985.31
2023-12-30T13:00:47.614Z,97991.28
2023-12-30T13:03:15.275Z,97986.22
2023-12-30T13:05:44.028Z,97992.88
2023-12-30T13:08:11.481Z,98001.13
2023-12-30T13:10:47.113Z,97993.81
2023-12-30T13:13:14.932Z,98002.19
2023-12-30T13:15:42.587Z,97987.63
2023-12-30T13:18:14.664Z,97990.34
2023-12-30T13:20:46.671Z,97994.91
2023-12-30T13:23:15.478Z,97996.34
2023-12-30T13:25:43.913Z,97993.31
2023-12-30T13:28:11.788Z,97987.75
2023-12-30T13:30:41.403Z,97989.72
2023-12-30T13:33:11.980Z,97995.03
2023-12-30T13:35:40.562Z,97987.47
2023-12-30T13:38:15.684Z,97984.00
2023-12-30T13:40:43.779Z,97979.88
2023-12-30T13:43:11.710Z,97983.44
2023-12-30T13:45:44.514Z,97945.78
2023-12-30T13:48:30.976Z,97984.38
2023-12-30T13:51:01.878Z,97969.63
2023-12-30T13:53:30.618Z,97983.28
2023-12-30T13:56:03.272Z,97978.09
2023-12-30T13:58:30.412Z,97970.50
2023-12-30T14:00:58.218Z,97970.50
2023-12-30T14:03:28.020Z,97953.75
2023-12-30T14:05:56.137Z,97950.88
2023-12-30T14:08:23.518Z,97952.19
2023-12-30T14:10:54.626Z,97935.44
2023-12-30T14:13:24.304Z,97940.50
2023-12-30T14:15:52.829Z,97940.50
2023-12-30T14:18:20.569Z,97936.66
2023-12-30T14:20:48.169Z,97941.28
2023-12-30T14:23:15.551Z,97942.59
2023-12-30T14:25:45.067Z,97936.22
2023-12-30T14:28:14.091Z,97932.75
2023-12-30T14:30:41.632Z,97929.72
2023-12-30T14:33:09.748Z,97933.53
2023-12-30T14:35:37.185Z,97934.34
2023-12-30T14:38:06.339Z,97948.56
2023-12-30T14:40:33.712Z,97948.63
2023-12-30T14:43:01.344Z,97950.66
2023-12-30T14:45:30.260Z,97951.09
2023-12-30T14:47:58.020Z,97940.19
2023-12-30T14:50:25.373Z,97938.59
2023-12-30T14:52:52.734Z,97941.41
2023-12-30T14:55:20.145Z,97939.19
2023-12-30T14:57:49.769Z,97935.88
2023-12-30T15:00:18.590Z,97939.75
2023-12-30T15:02:47.428Z,97937.47
2023-12-30T15:05:16.237Z,97940.13
2023-12-30T15:07:45.477Z,97931.25
2023-12-30T15:10:15.726Z,97938.66
2023-12-30T15:12:47.376Z,97930.03
2023-12-30T15:15:16.187Z,97925.09
2023-12-30T15:17:43.715Z,97920.72
2023-12-30T15:20:13.402Z,97923.50
2023-12-30T15:22:41.097Z,97914.19
2023-12-30T15:25:09.251Z,97914.34
2023-12-30T15:27:36.708Z,97905.63
2023-12-30T15:30:04.920Z,97909.31
2023-12-30T15:32:32.978Z,97915.00
2023-12-30T15:35:00.710Z,97909.44
2023-12-30T15:37:29.411Z,97911.31
2023-12-30T15:39:56.818Z,97910.66
2023-12-30T15:42:24.147Z,97910.66
2023-12-30T15:44:51.537Z,97909.56
2023-12-30T15:47:18.824Z,97910.50
2023-12-30T15:49:46.686Z,97906.25
2023-12-30T15:52:14.246Z,97909.56
2023-12-30T15:54:43.878Z,97898.03
2023-12-30T15:57:11.248Z,97901.75
2023-12-30T15:59:38.891Z,97893.97
2023-12-30T16:02:06.362Z,97887.78
2023-12-30T16:04:33.985Z,97889.94
2023-12-30T16:07:01.629Z,97891.00
2023-12-30T16:09:28.946Z,97891.78
2023-12-30T16:11:58.314Z,97895.28
2023-12-30T16:14:25.580Z,97891.00
2023-12-30T16:16:53.975Z,97887.16
2023-12-30T16:19:21.581Z,97880.69
2023-12-30T16:21:50.980Z,97882.53
2023-12-30T16:24:18.848Z,97864.06
2023-12-30T16:26:46.929Z,97868.19
2023-12-30T16:29:15.566Z,97861.03
2023-12-30T16:31:42.978Z,97857.59
2023-12-30T16:34:10.509Z,97845.59
2023-12-30T16:36:38.066Z,97849.22
2023-12-30T16:39:05.347Z,97828.88
2023-12-30T16:41:33.021Z,97836.09
2023-12-30T16:44:00.291Z,97831.69
2023-12-30T16:46:29.981Z,97822.25
2023-12-30T16:48:57.572Z,97824.78
2023-12-30T16:51:25.711Z,97819.72
2023-12-30T16:53:53.028Z,97814.66
2023-12-30T16:56:20.302Z,97823.03
2023-12-30T16:58:47.825Z,97806.44
2023-12-30T17:01:16.120Z,97812.41
2023-12-30T17:03:46.276Z,97806.59
2023-12-30T17:06:13.761Z,97800.09
2023-12-30T17:08:41.531Z,97796.78
2023-12-30T17:11:09.346Z,97800.38
2023-12-30T17:13:43.095Z,97792.28
2023-12-30T17:16:18.528Z,97791.22
2023-12-30T17:18:47.441Z,97793.09
2023-12-30T17:21:14.861Z,97788.69
2023-12-30T17:23:42.105Z,97779.53
2023-12-30T17:26:09.815Z,97789.06
2023-12-30T17:28:37.658Z,97789.34
2023-12-30T17:31:08.025Z,97784.28
2023-12-30T17:33:35.542Z,97777.50
2023-12-30T17:36:05.005Z,97770.25
2023-12-30T17:38:32.477Z,97773.56
2023-12-30T17:40:59.687Z,97762.53
2023-12-30T17:43:27.096Z,97757.75
2023-12-30T17:45:55.404Z,97752.56
2023-12-30T17:48:22.798Z,97753.50
2023-12-30T17:50:50.130Z,97750.03
2023-12-30T17:53:18.952Z,97753.78
2023-12-30T17:55:46.856Z,97742.91
2023-12-30T17:58:15.054Z,97739.59
2023-12-30T18:00:42.631Z,97737.56
2023-12-30T18:03:10.013Z,97738.66
2023-12-30T18:05:37.913Z,97732.69
2023-12-30T18:08:07.982Z,97733.88
2023-12-30T18:10:36.619Z,97739.88
2023-12-30T18:13:04.665Z,97729.13
2023-12-30T18:15:32.637Z,97734.31
2023-12-30T18:18:00.047Z,97731.28
2023-12-30T18:20:29.197Z,97733.16
2023-12-30T18:22:56.591Z,97735.53
2023-12-30T18:25:23.824Z,97732.88
2023-12-30T18:27:52.438Z,97724.16
2023-12-30T18:30:20.132Z,97727.59
2023-12-30T18:32:47.430Z,97727.09
2023-12-30T18:35:15.149Z,97713.03
2023-12-30T18:37:45.526Z,97713.34
2023-12-30T18:40:14.660Z,97713.34
2023-12-30T18:42:43.580Z,97707.00
2023-12-30T18:45:12.900Z,97705.03
2023-12-30T18:47:40.598Z,97702.28
2023-12-30T18:50:09.188Z,97701.78
2023-12-30T18:52:36.794Z,97702.72
2023-12-30T18:55:05.571Z,97685.78
2023-12-30T18:57:33.043Z,97686.22
2023-12-30T19:00:00.473Z,97694.19
2023-12-30T19:02:29.605Z,97679.75
2023-12-30T19:04:57.285Z,97679.25
2023-12-30T19:07:24.752Z,97683.78
2023-12-30T19:09:52.171Z,97668.31
2023-12-30T19:12:19.445Z,97666.47
2023-12-30T19:14:46.669Z,97665.03
2023-12-30T19:17:13.826Z,97656.56
2023-12-30T19:19:42.624Z,97650.19
2023-12-30T19:22:10.284Z,97647.94
2023-12-30T19:24:38.288Z,97644.75
2023-12-30T19:27:06.069Z,97637.91
2023-12-30T19:29:33.340Z,97633.16
2023-12-30T19:32:01.375Z,97624.28
2023-12-30T19:34:28.925Z,97632.94
2023-12-30T19:36:58.051Z,97621.69
2023-12-30T19:39:25.667Z,97622.38
2023-12-30T19:41:53.311Z,97621.59
2023-12-30T19:44:20.790Z,97620.13
2023-12-30T19:46:50.278Z,97622.66
2023-12-30T19:49:19.863Z,97615.25
2023-12-30T19:51:47.268Z,97613.00
2023-12-30T19:54:15.933Z,97611.56
2023-12-30T19:56:43.414Z,97603.88
2023-12-30T19:59:11.043Z,97612.09
2023-12-30T20:01:38.426Z,97600.03
2023-12-30T20:04:05.809Z,97591.41
2023-12-30T20:06:33.741Z,97597.25
2023-12-30T20:09:01.216Z,97596.72
2023-12-30T20:11:30.281Z,97599.50
2023-12-30T20:13:57.579Z,97588.78
2023-12-30T20:16:24.917Z,97595.69
2023-12-30T20:18:55.534Z,97584.31
2023-12-30T20:21:22.807Z,97577.81
2023-12-30T20:23:50.107Z,97578.25
2023-12-30T20:26:17.440Z,97573.22
2023-12-30T20:28:46.180Z,97574.41
2023-12-30T20:31:18.258Z,97569.38
2023-12-30T20:33:46.483Z,97551.00
2023-12-30T20:36:20.955Z,97563.59
2023-12-30T20:38:48.761Z,97563.06
2023-12-30T20:41:16.900Z,97556.59
2023-12-30T20:43:45.617Z,97547.59
2023-12-30T20:46:14.119Z,97553.56
2023-12-30T20:48:43.908Z,97543.63
2023-12-30T20:51:11.244Z,97548.78
2023-12-30T20:53:38.967Z,97535.06
2023-12-30T20:56:06.632Z,97533.03
2023-12-30T20:58:34.094Z,97546.25
2023-12-30T21:01:03.269Z,97535.41
2023-12-30T21:03:32.254Z,97532.75
2023-12-30T21:05:59.813Z,97524.78
2023-12-30T21:08:27.294Z,97515.41
2023-12-30T21:10:54.646Z,97518.84
2023-12-30T21:13:22.281Z,97515.66
2023-12-30T21:15:49.597Z,97513.44
2023-12-30T21:18:18.536Z,97508.16
2023-12-30T21:20:45.821Z,97508.94
2023-12-30T21:23:13.143Z,97511.75
2023-12-30T21:25:43.584Z,97511.06
2023-12-30T21:28:11.305Z,97512.13
2023-12-30T21:30:38.925Z,97505.22
2023-12-30T21:33:06.502Z,97499.63
2023-12-30T21:35:35.516Z,97502.81
2023-12-30T21:38:02.940Z,97494.19
2023-12-30T21:40:30.339Z,97487.28
2023-12-30T21:42:57.813Z,97489.53
2023-12-30T21:45:25.055Z,97478.41
2023-12-30T21:47:52.498Z,97486.03
2023-12-30T21:50:20.122Z,97482.88
2023-12-30T21:52:50.759Z,97470.28
2023-12-30T21:55:18.405Z,97469.88
2023-12-30T21:57:45.685Z,97474.75
2023-12-30T22:00:13.979Z,97471.66
2023-12-30T22:02:42.679Z,97462.41
2023-12-30T22:05:10.471Z,97443.97
2023-12-30T22:07:38.004Z,97433.28
2023-12-30T22:10:08.171Z,97441.47
2023-12-30T22:12:35.457Z,97443.34
2023-12-30T22:15:03.333Z,97431.69
2023-12-30T22:17:34.617Z,97435.50
2023-12-30T22:20:02.227Z,97442.75
2023-12-30T22:22:31.388Z,97448.59
2023-12-30T22:50:11.136Z,97429.22
2023-12-30T22:52:38.608Z,97426.59
2023-12-30T22:55:06.904Z,97422.22
2023-12-30T22:57:35.019Z,97422.41
2023-12-30T23:00:02.483Z,97417.09
2023-12-30T23:02:33.896Z,97409.88
2023-12-30T23:05:01.330Z,97419.88
2023-12-30T23:07:32.425Z,97417.06
2023-12-30T23:09:59.841Z,97413.75
2023-12-30T23:12:27.087Z,97403.19
2023-12-30T23:14:54.311Z,97403.63
2023-12-30T23:17:21.761Z,97401.59
2023-12-30T23:19:49.251Z,97404.47
2023-12-30T23:22:16.771Z,97398.53
2023-12-30T23:24:45.535Z,97397.97
2023-12-30T23:27:12.795Z,97394.50
2023-12-30T23:29:40.269Z,97390.84
2023-12-30T23:32:07.878Z,97392.53
2023-12-30T23:34:43.059Z,97390.53
2023-12-30T23:37:16.849Z,97391.47
2023-12-30T23:39:47.244Z,97375.84
2023-12-30T23:42:14.613Z,97377.78
2023-12-30T23:44:42.014Z,97373.69
2023-12-30T23:47:09.450Z,97385.69
2023-12-30T23:49:37.349Z,97373.75
2023-12-30T23:52:05.211Z,97374.53
2023-12-30T23:54:32.419Z,97364.38
2023-12-30T23:57:01.405Z,97367.19
2023-12-30T23:59:28.669Z,97359.03
